createdAt,value
2024-05-09T00:01:28.685Z,98248.91
2024-05-09T00:05:30.345Z,98241.97
2024-05-09T00:09:32.051Z,98246.44
2024-05-09T00:13:33.586Z,98239.34
2024-05-09T00:17:35.202Z,98239.56
2024-05-09T00:21:41.361Z,98239.06
2024-05-09T00:25:43.692Z,98236.16
2024-05-09T00:29:45.461Z,98239.72
2024-05-09T00:33:47.131Z,98245.16
2024-05-09T00:37:48.720Z,98233.69
2024-05-09T00:41:50.251Z,98240.06
2024-05-09T00:45:51.772Z,98233.94
2024-05-09T00:49:53.891Z,98229.94
2024-05-09T00:53:55.507Z,98226.38
2024-05-09T00:57:57.076Z,98225.06
2024-05-09T01:01:59.880Z,98223.00
2024-05-09T01:06:01.468Z,98224.78
2024-05-09T01:10:04.217Z,98224.75
2024-05-09T01:14:07.284Z,98225.31
2024-05-09T01:18:11.689Z,98226.28
2024-05-09T01:22:14.205Z,98227.63
2024-05-09T01:26:15.884Z,98231.81
2024-05-09T01:30:21.352Z,98238.47
2024-05-09T01:34:29.271Z,98234.06
2024-05-09T01:38:30.945Z,98240.38
2024-05-09T01:42:32.564Z,98239.81
2024-05-09T01:46:34.038Z,98248.69
2024-05-09T01:50:39.868Z,98245.94
2024-05-09T01:54:43.722Z,98246.19
2024-05-09T01:58:45.272Z,98247.81
2024-05-09T02:02:46.902Z,98241.94
2024-05-09T02:06:48.442Z,98241.94
2024-05-09T02:10:50.665Z,98253.81
2024-05-09T02:14:52.470Z,98259.88
2024-05-09T02:18:54.002Z,98255.69
2024-05-09T02:22:55.626Z,98247.72
2024-05-09T02:26:57.106Z,98254.88
2024-05-09T02:30:58.573Z,98249.91
2024-05-09T02:35:00.149Z,98246.88
2024-05-09T02:39:01.888Z,98242.38
2024-05-09T02:43:03.583Z,98239.31
2024-05-09T02:47:05.144Z,98242.59
2024-05-09T02:51:06.861Z,98247.28
2024-05-09T02:55:08.471Z,98244.91
2024-05-09T02:59:10.047Z,98240.47
2024-05-09T03:03:14.308Z,98246.94
2024-05-09T03:07:19.739Z,98249.38
2024-05-09T03:11:25.885Z,98244.06
2024-05-09T03:15:27.486Z,98249.03
2024-05-09T03:19:29.162Z,98249.38
2024-05-09T03:23:30.725Z,98251.25
2024-05-09T03:27:32.389Z,98249.19
2024-05-09T03:31:33.931Z,98241.50
2024-05-09T03:35:35.440Z,98249.06
2024-05-09T03:39:36.929Z,98250.81
2024-05-09T03:43:38.521Z,98251.56
2024-05-09T03:47:40.189Z,98250.41
2024-05-09T03:51:41.741Z,98255.56
2024-05-09T03:55:43.245Z,98257.19
2024-05-09T03:59:44.726Z,98258.59
2024-05-09T04:03:46.386Z,98258.47
2024-05-09T04:07:48.047Z,98254.72
2024-05-09T04:11:49.736Z,98262.66
2024-05-09T04:15:51.328Z,98260.59
2024-05-09T04:19:52.825Z,98274.91
2024-05-09T04:23:54.368Z,98278.63
2024-05-09T04:27:55.937Z,98279.66
2024-05-09T04:31:57.615Z,98277.22
2024-05-09T04:35:59.170Z,98286.38
2024-05-09T04:40:00.693Z,98297.69
2024-05-09T04:44:02.206Z,98298.88
2024-05-09T04:48:04.258Z,98307.91
2024-05-09T04:52:06.041Z,98300.91
2024-05-09T04:56:07.725Z,98298.28
2024-05-09T05:00:14.742Z,98293.03
2024-05-09T05:04:23.050Z,98295.97
2024-05-09T05:08:24.605Z,98300.50
2024-05-09T05:12:26.232Z,98300.78
2024-05-09T05:16:27.809Z,98291.78
2024-05-09T05:20:33.560Z,98290.25
2024-05-09T05:24:35.885Z,98291.56
2024-05-09T05:28:37.397Z,98288.16
2024-05-09T05:32:39.066Z,98284.09
2024-05-09T05:36:40.651Z,98293.97
2024-05-09T05:40:42.333Z,98296.72
2024-05-09T05:44:43.808Z,98291.13
2024-05-09T05:48:45.498Z,98288.03
2024-05-09T05:52:47.085Z,98294.84
2024-05-09T05:56:48.585Z,98292.59
2024-05-09T06:00:50.790Z,98295.72
2024-05-09T06:04:52.451Z,98292.47
2024-05-09T06:08:54.600Z,98297.28
2024-05-09T06:12:56.252Z,98288.94
2024-05-09T06:16:58.419Z,98281.78
2024-05-09T06:20:59.964Z,98285.16
2024-05-09T06:25:01.486Z,98285.88
2024-05-09T06:29:03.206Z,98281.38
2024-05-09T06:33:06.079Z,98275.06
2024-05-09T06:37:07.860Z,98282.03
2024-05-09T06:41:09.412Z,98278.91
2024-05-09T06:45:10.921Z,98270.44
2024-05-09T06:49:12.571Z,98280.94
2024-05-09T06:53:15.613Z,98272.84
2024-05-09T06:57:17.144Z,98278.31
2024-05-09T07:01:18.701Z,98274.06
2024-05-09T07:05:20.400Z,98279.53
2024-05-09T07:09:21.962Z,98268.44
2024-05-09T07:13:23.470Z,98280.81
2024-05-09T07:17:25.096Z,98280.78
2024-05-09T07:21:26.704Z,98267.94
2024-05-09T07:25:28.196Z,98269.91
2024-05-09T07:29:29.846Z,98271.19
2024-05-09T07:33:31.549Z,98269.91
2024-05-09T07:37:33.134Z,98264.00
2024-05-09T07:41:35.105Z,98270.31
2024-05-09T07:45:48.384Z,98267.72
2024-05-09T07:54:00.962Z,98261.88
2024-05-09T07:58:03.294Z,98260.88
2024-05-09T08:02:05.911Z,98257.81
2024-05-09T08:06:07.602Z,98259.94
2024-05-09T08:10:12.741Z,98256.78
2024-05-09T08:14:14.572Z,98252.25
2024-05-09T08:18:16.177Z,98252.94
2024-05-09T08:22:17.825Z,98248.28
2024-05-09T08:26:19.311Z,98245.13
2024-05-09T08:30:25.445Z,98263.16
2024-05-09T08:34:34.135Z,98242.50
2024-05-09T08:38:35.703Z,98256.06
2024-05-09T08:42:44.800Z,98267.59
2024-05-09T08:46:47.672Z,98247.00
2024-05-09T08:50:51.545Z,98244.25
2024-05-09T08:54:53.163Z,98247.97
2024-05-09T08:58:59.071Z,98249.75
2024-05-09T09:03:02.630Z,98243.63
2024-05-09T09:07:05.927Z,98243.06
2024-05-09T09:11:07.473Z,98252.25
2024-05-09T09:15:09.205Z,98241.00
2024-05-09T09:19:10.790Z,98248.78
2024-05-09T09:23:12.564Z,98249.38
2024-05-09T09:27:14.415Z,98238.75
2024-05-09T09:31:19.320Z,98252.16
2024-05-09T09:35:20.900Z,98233.63
2024-05-09T09:39:27.438Z,98241.81
2024-05-09T09:43:29.975Z,98251.53
2024-05-09T09:47:32.997Z,98244.03
2024-05-09T09:51:35.970Z,98243.03
2024-05-09T09:55:39.504Z,98261.59
2024-05-09T09:59:44.010Z,98254.41
2024-05-09T10:03:45.695Z,98242.75
2024-05-09T10:07:47.561Z,98240.66
2024-05-09T10:11:52.448Z,98237.94
2024-05-09T10:16:07.815Z,98232.91
2024-05-09T10:20:17.968Z,98229.84
2024-05-09T10:24:23.072Z,98227.72
2024-05-09T10:28:32.359Z,98211.13
2024-05-09T10:32:40.579Z,98214.97
2024-05-09T10:36:42.252Z,98212.47
2024-05-09T10:40:45.640Z,98202.59
2024-05-09T10:44:47.113Z,98201.06
2024-05-09T10:48:49.068Z,98208.63
2024-05-09T10:52:53.041Z,98210.81
2024-05-09T10:56:57.664Z,98196.69
2024-05-09T11:01:00.650Z,98201.97
2024-05-09T11:05:03.384Z,98196.81
2024-05-09T11:09:05.157Z,98192.53
2024-05-09T11:13:06.736Z,98196.63
2024-05-09T11:17:08.456Z,98189.06
2024-05-09T11:21:13.903Z,98181.66
2024-05-09T11:25:18.102Z,98182.56
2024-05-09T11:29:20.015Z,98175.31
2024-05-09T11:33:21.830Z,98175.25
2024-05-09T11:37:23.351Z,98177.16
2024-05-09T11:41:24.831Z,98175.31
2024-05-09T11:45:26.314Z,98165.16
2024-05-09T11:49:27.863Z,98174.81
2024-05-09T11:53:29.371Z,98164.50
2024-05-09T11:57:30.990Z,98167.88
2024-05-09T12:01:32.716Z,98175.13
2024-05-09T12:05:34.718Z,98167.09
2024-05-09T12:09:36.468Z,98167.66
2024-05-09T12:13:37.959Z,98162.88
2024-05-09T12:17:39.495Z,98155.34
2024-05-09T12:21:41.084Z,98157.00
2024-05-09T12:25:42.711Z,98157.41
2024-05-09T12:29:44.300Z,98154.84
2024-05-09T12:33:46.234Z,98147.81
2024-05-09T12:37:47.775Z,98132.75
2024-05-09T12:41:49.266Z,98130.59
2024-05-09T12:45:50.805Z,98133.66
2024-05-09T12:49:52.416Z,98128.03
2024-05-09T12:53:54.059Z,98123.34
2024-05-09T12:57:55.759Z,98120.53
2024-05-09T13:01:59.550Z,98118.56
2024-05-09T13:06:02.066Z,98115.53
2024-05-09T13:10:04.640Z,98111.69
2024-05-09T13:14:07.129Z,98108.63
2024-05-09T13:18:09.244Z,98101.63
2024-05-09T13:22:10.868Z,98090.88
2024-05-09T13:26:12.527Z,98090.00
2024-05-09T13:30:21.770Z,98090.38
2024-05-09T13:34:30.574Z,98091.59
2024-05-09T13:38:32.201Z,98094.31
2024-05-09T13:42:33.812Z,98088.59
2024-05-09T13:46:35.660Z,98074.25
2024-05-09T13:50:37.391Z,98073.88
2024-05-09T13:54:39.029Z,98063.50
2024-05-09T13:58:40.839Z,98062.69
2024-05-09T14:02:42.440Z,98059.09
2024-05-09T14:06:44.210Z,98052.78
2024-05-09T14:10:46.097Z,98052.66
2024-05-09T14:14:47.755Z,98049.38
2024-05-09T14:18:49.373Z,98053.69
2024-05-09T14:22:50.886Z,98042.84
2024-05-09T14:26:52.460Z,98040.16
2024-05-09T14:30:53.973Z,98036.06
2024-05-09T14:34:55.548Z,98036.06
2024-05-09T14:38:57.063Z,98027.28
2024-05-09T14:43:01.085Z,98021.44
2024-05-09T14:47:04.242Z,98025.81
2024-05-09T14:51:05.894Z,98025.06
2024-05-09T14:55:10.109Z,98027.25
2024-05-09T14:59:13.280Z,98023.31
2024-05-09T15:03:14.809Z,98022.38
2024-05-09T15:07:16.475Z,98013.38
2024-05-09T15:11:18.039Z,98014.75
2024-05-09T15:15:19.587Z,98007.97
2024-05-09T15:19:21.419Z,97997.16
2024-05-09T15:23:22.962Z,97991.31
2024-05-09T15:27:24.459Z,97992.59
2024-05-09T15:31:26.104Z,97998.28
2024-05-09T15:35:27.745Z,97992.22
2024-05-09T15:39:29.703Z,97985.06
2024-05-09T15:43:31.474Z,97990.19
2024-05-09T15:47:34.632Z,97983.00
2024-05-09T15:51:36.197Z,97977.81
2024-05-09T15:55:38.321Z,97974.88
2024-05-09T15:59:40.195Z,97976.41
2024-05-09T16:03:41.829Z,97981.13
2024-05-09T16:07:43.467Z,97964.09
2024-05-09T16:11:44.960Z,97979.34
2024-05-09T16:15:46.727Z,97973.78
2024-05-09T16:19:48.367Z,97970.41
2024-05-09T16:23:49.994Z,97972.13
2024-05-09T16:27:51.838Z,97972.72
2024-05-09T16:31:53.442Z,97965.69
2024-05-09T16:35:54.991Z,97960.56
2024-05-09T16:39:56.556Z,97954.63
2024-05-09T16:43:58.025Z,97959.78
2024-05-09T16:48:00.330Z,97962.31
2024-05-09T16:52:02.144Z,97956.94
2024-05-09T16:56:04.016Z,97955.66
2024-05-09T17:00:11.749Z,97958.84
2024-05-09T17:04:21.739Z,97957.22
2024-05-09T17:08:23.573Z,97958.44
2024-05-09T17:12:26.137Z,97958.53
2024-05-09T17:16:28.192Z,97954.06
2024-05-09T17:20:34.275Z,97960.09
2024-05-09T17:24:38.025Z,97955.34
2024-05-09T17:28:39.599Z,97958.00
2024-05-09T17:32:41.151Z,97958.19
2024-05-09T17:36:42.835Z,97958.09
2024-05-09T17:40:44.955Z,97958.22
2024-05-09T17:44:46.440Z,97952.00
2024-05-09T17:48:48.032Z,97959.78
2024-05-09T17:52:49.632Z,97968.03
2024-05-09T17:56:51.162Z,97972.97
2024-05-09T18:00:52.799Z,97972.75
2024-05-09T18:04:54.585Z,97973.19
2024-05-09T18:08:56.204Z,97968.84
2024-05-09T18:12:57.743Z,97970.94
2024-05-09T18:16:59.321Z,97964.91
2024-05-09T18:21:00.811Z,97974.25
2024-05-09T18:25:02.494Z,97976.03
2024-05-09T18:29:04.508Z,97968.81
2024-05-09T18:33:08.162Z,97970.97
2024-05-09T18:37:10.390Z,97972.16
2024-05-09T18:41:11.965Z,97974.53
2024-05-09T18:45:13.544Z,97980.81
2024-05-09T18:49:15.255Z,97976.97
2024-05-09T18:53:16.986Z,97982.53
2024-05-09T18:57:18.535Z,97997.59
2024-05-09T19:01:20.190Z,98006.91
2024-05-09T19:05:21.977Z,98009.03
2024-05-09T19:09:23.684Z,98022.13
2024-05-09T19:13:25.368Z,98023.38
2024-05-09T19:17:28.161Z,98024.56
2024-05-09T19:21:30.340Z,98031.16
2024-05-09T19:25:32.901Z,98035.84
2024-05-09T19:29:34.410Z,98039.13
2024-05-09T19:33:35.997Z,98045.25
2024-05-09T19:37:37.674Z,98040.72
2024-05-09T19:41:39.134Z,98028.13
2024-05-09T19:45:40.675Z,98036.09
2024-05-09T19:49:42.238Z,98041.06
2024-05-09T19:53:43.752Z,98044.50
2024-05-09T19:57:45.265Z,98046.56
2024-05-09T20:01:46.981Z,98055.75
2024-05-09T20:05:48.773Z,98051.41
2024-05-09T20:09:50.528Z,98050.34
2024-05-09T20:13:52.133Z,98053.19
2024-05-09T20:17:54.366Z,98056.25
2024-05-09T20:21:56.056Z,98056.69
2024-05-09T20:25:57.653Z,98060.91
2024-05-09T20:29:59.312Z,98059.00
2024-05-09T20:34:00.938Z,98052.00
2024-05-09T20:38:03.665Z,98047.38
2024-05-09T20:42:07.915Z,98052.88
2024-05-09T20:46:09.397Z,98052.06
2024-05-09T20:50:20.262Z,98052.13
2024-05-09T20:54:29.888Z,98050.00
2024-05-09T20:58:31.430Z,98046.38
2024-05-09T21:02:33.149Z,98051.09
2024-05-09T21:06:34.814Z,98051.19
2024-05-09T21:10:37.015Z,98049.06
2024-05-09T21:14:38.983Z,98052.13
2024-05-09T21:18:40.544Z,98051.31
2024-05-09T21:22:43.749Z,98044.13
2024-05-09T21:26:45.135Z,98043.31
2024-05-09T21:30:46.711Z,98055.47
2024-05-09T21:34:48.431Z,98058.78
2024-05-09T21:38:49.998Z,98057.97
2024-05-09T21:42:51.592Z,98046.97
2024-05-09T21:46:55.658Z,98045.84
2024-05-09T21:50:57.166Z,98038.94
2024-05-09T21:54:58.723Z,98041.72
2024-05-09T21:59:00.228Z,98050.50
2024-05-09T22:03:02.307Z,98047.50
2024-05-09T22:07:04.301Z,98046.41
2024-05-09T22:11:06.272Z,98042.25
2024-05-09T22:15:07.969Z,98039.75
2024-05-09T22:19:09.607Z,98041.66
2024-05-09T22:23:11.403Z,98049.13
2024-05-09T22:27:12.876Z,98052.44
2024-05-09T22:31:14.397Z,98050.50
2024-05-09T22:35:15.941Z,98055.44
2024-05-09T22:39:17.503Z,98046.06
2024-05-09T22:43:20.792Z,98054.78
2024-05-09T22:47:23.943Z,98048.22
2024-05-09T22:51:25.433Z,98057.28
2024-05-09T22:55:26.917Z,98057.56
2024-05-09T22:59:29.546Z,98056.72
2024-05-09T23:03:32.769Z,98050.16
2024-05-09T23:07:34.389Z,98046.50
2024-05-09T23:11:35.911Z,98056.31
2024-05-09T23:15:37.549Z,98055.00
2024-05-09T23:19:39.325Z,98047.19
2024-05-09T23:23:42.147Z,98043.91
2024-05-09T23:27:43.634Z,98046.72
2024-05-09T23:31:45.132Z,98049.72
2024-05-09T23:35:46.592Z,98049.59
2024-05-09T23:39:48.138Z,98041.84
2024-05-09T23:43:49.832Z,98047.88
2024-05-09T23:47:51.505Z,98046.75
2024-05-09T23:51:53.098Z,98042.66
2024-05-09T23:55:54.645Z,98036.94
2024-05-09T23:59:56.128Z,98038.09
